sensor_id;sensor_type;location;lat;lon;timestamp;P1;durP1;ratioP1;P2;durP2;ratioP2
12385;SDS011;6257;57.634;18.310;2023-06-14T00:01:21;3.47;;;2.43;;
12385;SDS011;6257;57.634;18.310;2023-06-14T00:03:48;2.97;;;2.63;;
12385;SDS011;6257;57.634;18.310;2023-06-14T00:06:15;6.50;;;3.00;;
12385;SDS011;6257;57.634;18.310;2023-06-14T00:08:43;6.40;;;2.97;;
12385;SDS011;6257;57.634;18.310;2023-06-14T00:11:10;3.93;;;3.17;;
12385;SDS011;6257;57.634;18.310;2023-06-14T00:13:39;5.67;;;2.83;;
12385;SDS011;6257;57.634;18.310;2023-06-14T00:16:07;4.47;;;2.97;;
12385;SDS011;6257;57.634;18.310;2023-06-14T00:18:34;7.23;;;2.70;;
12385;SDS011;6257;57.634;18.310;2023-06-14T00:21:01;5.80;;;2.53;;
12385;SDS011;6257;57.634;18.310;2023-06-14T00:23:29;5.17;;;3.00;;
12385;SDS011;6257;57.634;18.310;2023-06-14T00:25:56;5.90;;;2.80;;
12385;SDS011;6257;57.634;18.310;2023-06-14T00:28:23;9.07;;;2.80;;
12385;SDS011;6257;57.634;18.310;2023-06-14T00:30:51;5.20;;;2.80;;
12385;SDS011;6257;57.634;18.310;2023-06-14T00:33:19;4.33;;;2.60;;
12385;SDS011;6257;57.634;18.310;2023-06-14T00:35:46;7.80;;;3.70;;
12385;SDS011;6257;57.634;18.310;2023-06-14T00:38:13;4.77;;;3.07;;
12385;SDS011;6257;57.634;18.310;2023-06-14T00:40:40;8.23;;;3.27;;
12385;SDS011;6257;57.634;18.310;2023-06-14T00:43:07;5.03;;;2.97;;
12385;SDS011;6257;57.634;18.310;2023-06-14T00:45:34;4.60;;;3.20;;
12385;SDS011;6257;57.634;18.310;2023-06-14T00:48:03;5.50;;;3.30;;
12385;SDS011;6257;57.634;18.310;2023-06-14T00:50:32;4.17;;;3.17;;
12385;SDS011;6257;57.634;18.310;2023-06-14T00:52:59;4.53;;;3.10;;
12385;SDS011;6257;57.634;18.310;2023-06-14T00:55:27;4.67;;;3.03;;
12385;SDS011;6257;57.634;18.310;2023-06-14T00:57:54;4.07;;;2.63;;
12385;SDS011;6257;57.634;18.310;2023-06-14T01:00:22;6.17;;;3.03;;
12385;SDS011;6257;57.634;18.310;2023-06-14T01:02:49;6.73;;;3.43;;
12385;SDS011;6257;57.634;18.310;2023-06-14T01:05:18;4.73;;;3.07;;
12385;SDS011;6257;57.634;18.310;2023-06-14T01:08:02;7.27;;;2.93;;
12385;SDS011;6257;57.634;18.310;2023-06-14T01:10:37;7.70;;;2.93;;
12385;SDS011;6257;57.634;18.310;2023-06-14T01:13:13;4.77;;;3.10;;
12385;SDS011;6257;57.634;18.310;2023-06-14T01:15:46;4.67;;;3.20;;
12385;SDS011;6257;57.634;18.310;2023-06-14T01:18:14;6.43;;;3.10;;
12385;SDS011;6257;57.634;18.310;2023-06-14T01:20:44;5.43;;;2.77;;
12385;SDS011;6257;57.634;18.310;2023-06-14T01:23:15;3.30;;;3.00;;
12385;SDS011;6257;57.634;18.310;2023-06-14T01:25:43;4.60;;;3.20;;
12385;SDS011;6257;57.634;18.310;2023-06-14T01:28:10;4.80;;;2.77;;
12385;SDS011;6257;57.634;18.310;2023-06-14T01:30:40;5.07;;;3.33;;
12385;SDS011;6257;57.634;18.310;2023-06-14T01:33:10;5.43;;;3.27;;
12385;SDS011;6257;57.634;18.310;2023-06-14T01:35:38;6.37;;;3.17;;
12385;SDS011;6257;57.634;18.310;2023-06-14T01:38:06;5.03;;;3.40;;
12385;SDS011;6257;57.634;18.310;2023-06-14T01:40:35;4.53;;;3.23;;
12385;SDS011;6257;57.634;18.310;2023-06-14T01:43:03;4.93;;;3.10;;
12385;SDS011;6257;57.634;18.310;2023-06-14T01:45:33;5.83;;;3.33;;
12385;SDS011;6257;57.634;18.310;2023-06-14T01:48:01;6.47;;;2.67;;
12385;SDS011;6257;57.634;18.310;2023-06-14T01:50:29;7.53;;;2.80;;
12385;SDS011;6257;57.634;18.310;2023-06-14T01:52:56;3.67;;;3.23;;
12385;SDS011;6257;57.634;18.310;2023-06-14T01:55:24;5.73;;;3.50;;
12385;SDS011;6257;57.634;18.310;2023-06-14T01:57:52;9.30;;;3.10;;
12385;SDS011;6257;57.634;18.310;2023-06-14T02:00:20;4.87;;;2.80;;
12385;SDS011;6257;57.634;18.310;2023-06-14T02:02:47;5.40;;;2.93;;
12385;SDS011;6257;57.634;18.310;2023-06-14T02:05:15;5.37;;;3.27;;
12385;SDS011;6257;57.634;18.310;2023-06-14T02:07:44;6.23;;;3.40;;
12385;SDS011;6257;57.634;18.310;2023-06-14T02:10:11;4.70;;;2.90;;
12385;SDS011;6257;57.634;18.310;2023-06-14T02:12:39;5.27;;;2.80;;
12385;SDS011;6257;57.634;18.310;2023-06-14T02:15:09;3.80;;;2.80;;
12385;SDS011;6257;57.634;18.310;2023-06-14T02:17:42;3.40;;;2.93;;
12385;SDS011;6257;57.634;18.310;2023-06-14T02:20:09;3.40;;;2.77;;
12385;SDS011;6257;57.634;18.310;2023-06-14T02:22:37;4.07;;;2.70;;
12385;SDS011;6257;57.634;18.310;2023-06-14T02:25:04;5.10;;;2.73;;
12385;SDS011;6257;57.634;18.310;2023-06-14T02:27:31;4.83;;;2.67;;
12385;SDS011;6257;57.634;18.310;2023-06-14T02:29:58;3.77;;;2.67;;
12385;SDS011;6257;57.634;18.310;2023-06-14T02:32:27;4.33;;;2.90;;
12385;SDS011;6257;57.634;18.310;2023-06-14T02:34:55;5.27;;;3.20;;
12385;SDS011;6257;57.634;18.310;2023-06-14T02:37:22;5.67;;;2.80;;
12385;SDS011;6257;57.634;18.310;2023-06-14T02:39:49;4.17;;;3.10;;
12385;SDS011;6257;57.634;18.310;2023-06-14T02:42:16;5.10;;;2.80;;
12385;SDS011;6257;57.634;18.310;2023-06-14T02:44:43;4.73;;;3.30;;
12385;SDS011;6257;57.634;18.310;2023-06-14T02:47:11;5.07;;;2.80;;
12385;SDS011;6257;57.634;18.310;2023-06-14T02:49:40;5.53;;;2.83;;
12385;SDS011;6257;57.634;18.310;2023-06-14T02:52:07;4.07;;;2.67;;
12385;SDS011;6257;57.634;18.310;2023-06-14T02:54:34;4.90;;;2.80;;
12385;SDS011;6257;57.634;18.310;2023-06-14T02:57:01;5.07;;;2.70;;
12385;SDS011;6257;57.634;18.310;2023-06-14T02:59:28;6.07;;;2.90;;
12385;SDS011;6257;57.634;18.310;2023-06-14T03:01:55;4.10;;;2.63;;
12385;SDS011;6257;57.634;18.310;2023-06-14T03:04:23;3.23;;;2.70;;
12385;SDS011;6257;57.634;18.310;2023-06-14T03:06:53;5.40;;;2.70;;
12385;SDS011;6257;57.634;18.310;2023-06-14T03:09:21;6.27;;;2.83;;
12385;SDS011;6257;57.634;18.310;2023-06-14T03:11:48;11.00;;;3.00;;
12385;SDS011;6257;57.634;18.310;2023-06-14T03:14:15;8.93;;;3.03;;
12385;SDS011;6257;57.634;18.310;2023-06-14T03:16:44;5.50;;;2.70;;
12385;SDS011;6257;57.634;18.310;2023-06-14T03:19:11;5.87;;;2.60;;
12385;SDS011;6257;57.634;18.310;2023-06-14T03:21:38;5.03;;;2.97;;
12385;SDS011;6257;57.634;18.310;2023-06-14T03:24:10;7.53;;;2.67;;
12385;SDS011;6257;57.634;18.310;2023-06-14T03:26:37;6.37;;;2.67;;
12385;SDS011;6257;57.634;18.310;2023-06-14T03:29:04;7.13;;;2.90;;
12385;SDS011;6257;57.634;18.310;2023-06-14T03:31:31;6.83;;;3.10;;
12385;SDS011;6257;57.634;18.310;2023-06-14T03:33:58;6.90;;;3.03;;
12385;SDS011;6257;57.634;18.310;2023-06-14T03:36:25;4.43;;;2.90;;
12385;SDS011;6257;57.634;18.310;2023-06-14T03:38:53;6.17;;;2.73;;
12385;SDS011;6257;57.634;18.310;2023-06-14T03:41:21;5.20;;;2.80;;
12385;SDS011;6257;57.634;18.310;2023-06-14T03:43:48;9.17;;;3.17;;
12385;SDS011;6257;57.634;18.310;2023-06-14T03:46:15;4.57;;;2.87;;
12385;SDS011;6257;57.634;18.310;2023-06-14T03:48:42;6.63;;;4.20;;
12385;SDS011;6257;57.634;18.310;2023-06-14T03:51:10;11.80;;;6.33;;
12385;SDS011;6257;57.634;18.310;2023-06-14T03:53:37;8.90;;;5.80;;
12385;SDS011;6257;57.634;18.310;2023-06-14T03:56:04;10.37;;;4.70;;
12385;SDS011;6257;57.634;18.310;2023-06-14T03:58:33;7.20;;;4.43;;
12385;SDS011;6257;57.634;18.310;2023-06-14T04:01:00;8.90;;;4.33;;
12385;SDS011;6257;57.634;18.310;2023-06-14T04:03:27;8.23;;;3.77;;
12385;SDS011;6257;57.634;18.310;2023-06-14T04:05:54;10.30;;;3.57;;
12385;SDS011;6257;57.634;18.310;2023-06-14T04:08:24;10.23;;;3.37;;
12385;SDS011;6257;57.634;18.310;2023-06-14T04:10:52;11.27;;;3.20;;
12385;SDS011;6257;57.634;18.310;2023-06-14T04:13:19;8.53;;;3.43;;
12385;SDS011;6257;57.634;18.310;2023-06-14T04:15:47;11.63;;;3.23;;
12385;SDS011;6257;57.634;18.310;2023-06-14T04:18:14;14.00;;;3.50;;
12385;SDS011;6257;57.634;18.310;2023-06-14T04:20:41;6.47;;;2.87;;
12385;SDS011;6257;57.634;18.310;2023-06-14T04:23:12;6.87;;;2.83;;
12385;SDS011;6257;57.634;18.310;2023-06-14T04:25:39;4.50;;;2.33;;
12385;SDS011;6257;57.634;18.310;2023-06-14T04:28:10;6.87;;;2.80;;
12385;SDS011;6257;57.634;18.310;2023-06-14T04:30:40;4.80;;;2.50;;
12385;SDS011;6257;57.634;18.310;2023-06-14T04:33:10;6.37;;;2.80;;
12385;SDS011;6257;57.634;18.310;2023-06-14T04:35:38;11.80;;;3.47;;
12385;SDS011;6257;57.634;18.310;2023-06-14T04:38:06;5.20;;;2.70;;
12385;SDS011;6257;57.634;18.310;2023-06-14T04:40:34;11.47;;;3.17;;
12385;SDS011;6257;57.634;18.310;2023-06-14T04:43:08;13.80;;;3.63;;
12385;SDS011;6257;57.634;18.310;2023-06-14T04:45:37;6.70;;;2.60;;
12385;SDS011;6257;57.634;18.310;2023-06-14T04:48:05;4.27;;;2.00;;
12385;SDS011;6257;57.634;18.310;2023-06-14T04:50:34;6.07;;;2.03;;
12385;SDS011;6257;57.634;18.310;2023-06-14T04:53:01;7.73;;;2.23;;
12385;SDS011;6257;57.634;18.310;2023-06-14T04:55:28;3.60;;;2.40;;
12385;SDS011;6257;57.634;18.310;2023-06-14T04:57:56;4.63;;;2.37;;
12385;SDS011;6257;57.634;18.310;2023-06-14T05:00:23;9.00;;;2.40;;
12385;SDS011;6257;57.634;18.310;2023-06-14T05:02:50;4.43;;;2.33;;
12385;SDS011;6257;57.634;18.310;2023-06-14T05:05:18;5.70;;;2.10;;
12385;SDS011;6257;57.634;18.310;2023-06-14T05:07:47;9.67;;;2.70;;
12385;SDS011;6257;57.634;18.310;2023-06-14T05:10:14;6.40;;;2.47;;
12385;SDS011;6257;57.634;18.310;2023-06-14T05:12:42;9.73;;;2.30;;
12385;SDS011;6257;57.634;18.310;2023-06-14T05:15:09;8.27;;;2.50;;
12385;SDS011;6257;57.634;18.310;2023-06-14T05:17:36;8.53;;;3.03;;
12385;SDS011;6257;57.634;18.310;2023-06-14T05:20:06;10.53;;;2.53;;
12385;SDS011;6257;57.634;18.310;2023-06-14T05:22:35;7.23;;;2.73;;
12385;SDS011;6257;57.634;18.310;2023-06-14T05:25:04;7.27;;;2.10;;
12385;SDS011;6257;57.634;18.310;2023-06-14T05:27:31;4.37;;;2.40;;
12385;SDS011;6257;57.634;18.310;2023-06-14T05:30:00;7.40;;;2.17;;
12385;SDS011;6257;57.634;18.310;2023-06-14T05:32:29;9.80;;;2.50;;
12385;SDS011;6257;57.634;18.310;2023-06-14T05:34:56;7.00;;;2.10;;
12385;SDS011;6257;57.634;18.310;2023-06-14T05:37:23;4.63;;;1.80;;
12385;SDS011;6257;57.634;18.310;2023-06-14T05:39:50;3.43;;;2.23;;
12385;SDS011;6257;57.634;18.310;2023-06-14T05:42:18;5.70;;;1.93;;
12385;SDS011;6257;57.634;18.310;2023-06-14T05:44:45;5.30;;;2.10;;
12385;SDS011;6257;57.634;18.310;2023-06-14T05:47:12;6.87;;;2.43;;
12385;SDS011;6257;57.634;18.310;2023-06-14T05:49:40;23.07;;;4.13;;
12385;SDS011;6257;57.634;18.310;2023-06-14T05:52:08;6.23;;;1.90;;
12385;SDS011;6257;57.634;18.310;2023-06-14T05:54:35;9.47;;;2.47;;
12385;SDS011;6257;57.634;18.310;2023-06-14T05:57:02;7.53;;;2.23;;
12385;SDS011;6257;57.634;18.310;2023-06-14T05:59:32;7.20;;;1.90;;
12385;SDS011;6257;57.634;18.310;2023-06-14T06:02:00;2.87;;;1.70;;
12385;SDS011;6257;57.634;18.310;2023-06-14T06:04:27;3.73;;;2.20;;
12385;SDS011;6257;57.634;18.310;2023-06-14T06:06:54;5.40;;;2.23;;
12385;SDS011;6257;57.634;18.310;2023-06-14T06:09:21;2.83;;;1.80;;
12385;SDS011;6257;57.634;18.310;2023-06-14T06:11:48;5.40;;;2.37;;
12385;SDS011;6257;57.634;18.310;2023-06-14T06:14:15;4.07;;;2.27;;
12385;SDS011;6257;57.634;18.310;2023-06-14T06:16:43;6.47;;;2.07;;
12385;SDS011;6257;57.634;18.310;2023-06-14T06:19:11;4.60;;;1.97;;
12385;SDS011;6257;57.634;18.310;2023-06-14T06:21:38;7.03;;;2.20;;
12385;SDS011;6257;57.634;18.310;2023-06-14T06:24:05;5.70;;;2.00;;
12385;SDS011;6257;57.634;18.310;2023-06-14T06:26:33;5.93;;;2.13;;
12385;SDS011;6257;57.634;18.310;2023-06-14T06:29:00;3.73;;;1.83;;
12385;SDS011;6257;57.634;18.310;2023-06-14T06:31:27;4.57;;;2.00;;
12385;SDS011;6257;57.634;18.310;2023-06-14T06:33:55;7.37;;;2.10;;
12385;SDS011;6257;57.634;18.310;2023-06-14T06:36:23;3.73;;;2.20;;
12385;SDS011;6257;57.634;18.310;2023-06-14T06:38:50;11.10;;;2.60;;
12385;SDS011;6257;57.634;18.310;2023-06-14T06:41:18;5.13;;;1.93;;
12385;SDS011;6257;57.634;18.310;2023-06-14T06:43:45;6.47;;;2.33;;
12385;SDS011;6257;57.634;18.310;2023-06-14T06:46:12;6.17;;;2.13;;
12385;SDS011;6257;57.634;18.310;2023-06-14T06:48:39;5.83;;;2.20;;
12385;SDS011;6257;57.634;18.310;2023-06-14T06:51:08;5.20;;;2.23;;
12385;SDS011;6257;57.634;18.310;2023-06-14T06:53:35;3.00;;;2.00;;
12385;SDS011;6257;57.634;18.310;2023-06-14T06:56:02;5.37;;;2.00;;
12385;SDS011;6257;57.634;18.310;2023-06-14T06:58:30;4.63;;;2.20;;
12385;SDS011;6257;57.634;18.310;2023-06-14T07:00:57;6.30;;;2.27;;
12385;SDS011;6257;57.634;18.310;2023-06-14T07:03:24;5.60;;;2.30;;
12385;SDS011;6257;57.634;18.310;2023-06-14T07:05:51;3.73;;;2.20;;
12385;SDS011;6257;57.634;18.310;2023-06-14T07:08:20;5.33;;;2.50;;
12385;SDS011;6257;57.634;18.310;2023-06-14T07:10:47;5.60;;;2.00;;
12385;SDS011;6257;57.634;18.310;2023-06-14T07:13:14;6.83;;;2.03;;
12385;SDS011;6257;57.634;18.310;2023-06-14T07:15:41;4.47;;;2.23;;
12385;SDS011;6257;57.634;18.310;2023-06-14T07:18:08;3.23;;;2.23;;
12385;SDS011;6257;57.634;18.310;2023-06-14T07:20:35;4.93;;;2.23;;
12385;SDS011;6257;57.634;18.310;2023-06-14T07:23:03;6.97;;;2.37;;
12385;SDS011;6257;57.634;18.310;2023-06-14T07:25:32;6.13;;;2.37;;
12385;SDS011;6257;57.634;18.310;2023-06-14T07:27:59;3.50;;;2.17;;
12385;SDS011;6257;57.634;18.310;2023-06-14T07:30:26;4.23;;;2.30;;
12385;SDS011;6257;57.634;18.310;2023-06-14T07:32:55;4.10;;;2.20;;
12385;SDS011;6257;57.634;18.310;2023-06-14T07:35:22;8.47;;;2.50;;
12385;SDS011;6257;57.634;18.310;2023-06-14T07:37:50;2.13;;;1.83;;
12385;SDS011;6257;57.634;18.310;2023-06-14T07:40:17;3.77;;;1.93;;
12385;SDS011;6257;57.634;18.310;2023-06-14T07:42:46;3.10;;;2.10;;
12385;SDS011;6257;57.634;18.310;2023-06-14T07:45:15;11.63;;;2.90;;
12385;SDS011;6257;57.634;18.310;2023-06-14T07:47:42;7.00;;;2.63;;
12385;SDS011;6257;57.634;18.310;2023-06-14T07:50:10;3.30;;;1.77;;
12385;SDS011;6257;57.634;18.310;2023-06-14T07:52:38;3.77;;;1.97;;
12385;SDS011;6257;57.634;18.310;2023-06-14T07:55:05;4.60;;;2.20;;
12385;SDS011;6257;57.634;18.310;2023-06-14T07:57:33;23.00;;;3.40;;
12385;SDS011;6257;57.634;18.310;2023-06-14T08:00:01;8.53;;;2.50;;
12385;SDS011;6257;57.634;18.310;2023-06-14T08:02:31;6.60;;;2.47;;
12385;SDS011;6257;57.634;18.310;2023-06-14T08:04:58;5.63;;;2.20;;
12385;SDS011;6257;57.634;18.310;2023-06-14T08:07:25;5.80;;;2.17;;
12385;SDS011;6257;57.634;18.310;2023-06-14T08:09:52;6.13;;;2.27;;
12385;SDS011;6257;57.634;18.310;2023-06-14T08:12:19;3.17;;;1.83;;
12385;SDS011;6257;57.634;18.310;2023-06-14T08:14:46;8.80;;;2.77;;
12385;SDS011;6257;57.634;18.310;2023-06-14T08:17:15;8.70;;;2.60;;
12385;SDS011;6257;57.634;18.310;2023-06-14T08:19:42;5.03;;;2.33;;
12385;SDS011;6257;57.634;18.310;2023-06-14T08:22:09;5.40;;;2.13;;
12385;SDS011;6257;57.634;18.310;2023-06-14T08:24:37;6.60;;;2.30;;
12385;SDS011;6257;57.634;18.310;2023-06-14T08:27:05;5.73;;;2.33;;
12385;SDS011;6257;57.634;18.310;2023-06-14T08:29:32;3.77;;;2.47;;
12385;SDS011;6257;57.634;18.310;2023-06-14T08:31:59;5.60;;;2.00;;
12385;SDS011;6257;57.634;18.310;2023-06-14T08:34:28;8.67;;;2.47;;
12385;SDS011;6257;57.634;18.310;2023-06-14T08:36:55;7.93;;;2.47;;
12385;SDS011;6257;57.634;18.310;2023-06-14T08:39:23;8.40;;;2.13;;
12385;SDS011;6257;57.634;18.310;2023-06-14T08:41:50;5.17;;;2.50;;
12385;SDS011;6257;57.634;18.310;2023-06-14T08:44:19;5.53;;;2.00;;
12385;SDS011;6257;57.634;18.310;2023-06-14T08:46:48;3.70;;;2.13;;
12385;SDS011;6257;57.634;18.310;2023-06-14T08:49:18;13.63;;;2.70;;
12385;SDS011;6257;57.634;18.310;2023-06-14T08:51:49;5.23;;;2.43;;
12385;SDS011;6257;57.634;18.310;2023-06-14T08:54:22;9.47;;;2.50;;
12385;SDS011;6257;57.634;18.310;2023-06-14T08:56:53;5.90;;;2.53;;
12385;SDS011;6257;57.634;18.310;2023-06-14T08:59:22;5.97;;;2.17;;
12385;SDS011;6257;57.634;18.310;2023-06-14T09:01:51;8.67;;;2.30;;
12385;SDS011;6257;57.634;18.310;2023-06-14T09:04:19;5.63;;;2.17;;
12385;SDS011;6257;57.634;18.310;2023-06-14T09:06:47;3.97;;;2.07;;
12385;SDS011;6257;57.634;18.310;2023-06-14T09:09:21;5.67;;;2.27;;
12385;SDS011;6257;57.634;18.310;2023-06-14T09:11:49;5.97;;;2.30;;
12385;SDS011;6257;57.634;18.310;2023-06-14T09:16:44;3.77;;;2.17;;
12385;SDS011;6257;57.634;18.310;2023-06-14T09:19:13;3.37;;;1.70;;
12385;SDS011;6257;57.634;18.310;2023-06-14T09:21:47;4.50;;;2.13;;
12385;SDS011;6257;57.634;18.310;2023-06-14T09:24:15;5.17;;;2.30;;
12385;SDS011;6257;57.634;18.310;2023-06-14T09:26:43;10.60;;;2.37;;
12385;SDS011;6257;57.634;18.310;2023-06-14T09:29:13;4.03;;;2.10;;
12385;SDS011;6257;57.634;18.310;2023-06-14T09:31:45;4.33;;;2.00;;
12385;SDS011;6257;57.634;18.310;2023-06-14T09:34:13;3.23;;;1.80;;
12385;SDS011;6257;57.634;18.310;2023-06-14T09:36:43;3.33;;;2.07;;
12385;SDS011;6257;57.634;18.310;2023-06-14T09:39:10;4.00;;;1.90;;
12385;SDS011;6257;57.634;18.310;2023-06-14T09:41:37;14.67;;;3.47;;
12385;SDS011;6257;57.634;18.310;2023-06-14T09:44:07;13.83;;;2.60;;
12385;SDS011;6257;57.634;18.310;2023-06-14T09:46:35;3.43;;;2.40;;
12385;SDS011;6257;57.634;18.310;2023-06-14T09:49:03;9.20;;;2.30;;
12385;SDS011;6257;57.634;18.310;2023-06-14T09:51:31;2.03;;;1.53;;
12385;SDS011;6257;57.634;18.310;2023-06-14T09:53:58;6.20;;;2.47;;
12385;SDS011;6257;57.634;18.310;2023-06-14T09:56:31;5.63;;;1.90;;
12385;SDS011;6257;57.634;18.310;2023-06-14T09:59:00;4.87;;;2.10;;
12385;SDS011;6257;57.634;18.310;2023-06-14T10:01:33;3.13;;;2.17;;
12385;SDS011;6257;57.634;18.310;2023-06-14T10:04:02;5.80;;;2.40;;
12385;SDS011;6257;57.634;18.310;2023-06-14T10:06:31;3.27;;;1.90;;
12385;SDS011;6257;57.634;18.310;2023-06-14T10:09:03;4.33;;;1.87;;
12385;SDS011;6257;57.634;18.310;2023-06-14T10:11:33;1.97;;;1.77;;
12385;SDS011;6257;57.634;18.310;2023-06-14T10:14:02;4.00;;;1.80;;
12385;SDS011;6257;57.634;18.310;2023-06-14T10:16:34;5.73;;;2.10;;
12385;SDS011;6257;57.634;18.310;2023-06-14T10:19:06;5.27;;;2.03;;
12385;SDS011;6257;57.634;18.310;2023-06-14T10:21:41;2.90;;;1.80;;
12385;SDS011;6257;57.634;18.310;2023-06-14T10:24:18;4.60;;;1.93;;
12385;SDS011;6257;57.634;18.310;2023-06-14T10:26:49;3.93;;;2.20;;
12385;SDS011;6257;57.634;18.310;2023-06-14T10:29:17;4.70;;;1.80;;
12385;SDS011;6257;57.634;18.310;2023-06-14T10:31:47;3.80;;;1.90;;
12385;SDS011;6257;57.634;18.310;2023-06-14T10:34:21;4.80;;;2.20;;
12385;SDS011;6257;57.634;18.310;2023-06-14T10:37:00;12.17;;;2.97;;
12385;SDS011;6257;57.634;18.310;2023-06-14T10:39:29;3.13;;;1.70;;
12385;SDS011;6257;57.634;18.310;2023-06-14T10:41:56;5.60;;;1.60;;
12385;SDS011;6257;57.634;18.310;2023-06-14T10:44:33;2.47;;;1.73;;
12385;SDS011;6257;57.634;18.310;2023-06-14T10:47:09;3.20;;;1.73;;
12385;SDS011;6257;57.634;18.310;2023-06-14T10:49:49;5.33;;;2.20;;
12385;SDS011;6257;57.634;18.310;2023-06-14T10:52:20;4.43;;;1.80;;
12385;SDS011;6257;57.634;18.310;2023-06-14T10:57:43;4.63;;;1.80;;
12385;SDS011;6257;57.634;18.310;2023-06-14T11:00:13;3.80;;;2.13;;
12385;SDS011;6257;57.634;18.310;2023-06-14T11:05:55;4.87;;;1.83;;
12385;SDS011;6257;57.634;18.310;2023-06-14T11:08:27;3.97;;;2.00;;
12385;SDS011;6257;57.634;18.310;2023-06-14T11:11:18;6.73;;;2.17;;
12385;SDS011;6257;57.634;18.310;2023-06-14T11:13:48;3.27;;;1.80;;
12385;SDS011;6257;57.634;18.310;2023-06-14T11:16:21;2.57;;;1.63;;
12385;SDS011;6257;57.634;18.310;2023-06-14T11:18:53;7.77;;;2.00;;
12385;SDS011;6257;57.634;18.310;2023-06-14T11:21:21;7.03;;;2.30;;
12385;SDS011;6257;57.634;18.310;2023-06-14T11:23:50;6.70;;;1.87;;
12385;SDS011;6257;57.634;18.310;2023-06-14T11:26:25;6.07;;;1.70;;
12385;SDS011;6257;57.634;18.310;2023-06-14T11:28:54;3.53;;;1.80;;
12385;SDS011;6257;57.634;18.310;2023-06-14T11:31:23;2.13;;;1.80;;
12385;SDS011;6257;57.634;18.310;2023-06-14T11:33:50;4.63;;;1.87;;
12385;SDS011;6257;57.634;18.310;2023-06-14T11:36:19;3.47;;;2.00;;
12385;SDS011;6257;57.634;18.310;2023-06-14T11:38:48;4.57;;;2.17;;
12385;SDS011;6257;57.634;18.310;2023-06-14T11:41:15;4.03;;;1.60;;
12385;SDS011;6257;57.634;18.310;2023-06-14T11:43:42;5.20;;;1.80;;
12385;SDS011;6257;57.634;18.310;2023-06-14T11:46:12;4.57;;;2.03;;
12385;SDS011;6257;57.634;18.310;2023-06-14T11:48:41;5.67;;;2.30;;
12385;SDS011;6257;57.634;18.310;2023-06-14T11:51:08;6.83;;;1.93;;
12385;SDS011;6257;57.634;18.310;2023-06-14T11:53:36;4.67;;;2.07;;
12385;SDS011;6257;57.634;18.310;2023-06-14T11:56:05;13.40;;;3.20;;
12385;SDS011;6257;57.634;18.310;2023-06-14T11:58:32;8.30;;;1.80;;
12385;SDS011;6257;57.634;18.310;2023-06-14T12:00:59;3.00;;;1.63;;
12385;SDS011;6257;57.634;18.310;2023-06-14T12:03:28;7.03;;;1.90;;
12385;SDS011;6257;57.634;18.310;2023-06-14T12:06:03;4.53;;;1.77;;
12385;SDS011;6257;57.634;18.310;2023-06-14T12:08:32;3.53;;;1.50;;
12385;SDS011;6257;57.634;18.310;2023-06-14T12:11:05;4.93;;;2.07;;
12385;SDS011;6257;57.634;18.310;2023-06-14T12:13:33;3.50;;;1.73;;
12385;SDS011;6257;57.634;18.310;2023-06-14T12:16:03;7.27;;;2.00;;
12385;SDS011;6257;57.634;18.310;2023-06-14T12:18:31;6.97;;;1.70;;
12385;SDS011;6257;57.634;18.310;2023-06-14T12:20:59;3.87;;;1.80;;
12385;SDS011;6257;57.634;18.310;2023-06-14T12:23:38;16.37;;;2.90;;
12385;SDS011;6257;57.634;18.310;2023-06-14T12:26:07;7.80;;;2.10;;
12385;SDS011;6257;57.634;18.310;2023-06-14T12:28:34;7.87;;;2.30;;
12385;SDS011;6257;57.634;18.310;2023-06-14T12:31:01;3.80;;;2.00;;
12385;SDS011;6257;57.634;18.310;2023-06-14T12:33:28;5.10;;;1.90;;
12385;SDS011;6257;57.634;18.310;2023-06-14T12:35:55;5.90;;;2.10;;
12385;SDS011;6257;57.634;18.310;2023-06-14T12:38:24;4.70;;;1.83;;
12385;SDS011;6257;57.634;18.310;2023-06-14T12:40:51;2.67;;;1.90;;
12385;SDS011;6257;57.634;18.310;2023-06-14T12:43:19;4.27;;;1.70;;
12385;SDS011;6257;57.634;18.310;2023-06-14T12:45:46;3.47;;;1.97;;
12385;SDS011;6257;57.634;18.310;2023-06-14T12:48:13;5.47;;;2.30;;
12385;SDS011;6257;57.634;18.310;2023-06-14T12:50:40;10.33;;;2.60;;
12385;SDS011;6257;57.634;18.310;2023-06-14T12:53:07;6.10;;;2.00;;
12385;SDS011;6257;57.634;18.310;2023-06-14T12:55:35;6.03;;;2.03;;
12385;SDS011;6257;57.634;18.310;2023-06-14T12:58:02;6.17;;;2.00;;
12385;SDS011;6257;57.634;18.310;2023-06-14T13:00:30;5.07;;;2.10;;
12385;SDS011;6257;57.634;18.310;2023-06-14T13:02:58;6.73;;;2.33;;
12385;SDS011;6257;57.634;18.310;2023-06-14T13:05:25;4.13;;;2.33;;
12385;SDS011;6257;57.634;18.310;2023-06-14T13:07:52;6.97;;;2.07;;
12385;SDS011;6257;57.634;18.310;2023-06-14T13:10:19;2.40;;;1.87;;
12385;SDS011;6257;57.634;18.310;2023-06-14T13:12:46;7.37;;;2.20;;
12385;SDS011;6257;57.634;18.310;2023-06-14T13:15:13;2.90;;;1.80;;
12385;SDS011;6257;57.634;18.310;2023-06-14T13:17:41;4.57;;;2.00;;
12385;SDS011;6257;57.634;18.310;2023-06-14T13:20:13;5.80;;;1.97;;
12385;SDS011;6257;57.634;18.310;2023-06-14T13:22:41;5.53;;;2.10;;
12385;SDS011;6257;57.634;18.310;2023-06-14T13:25:08;4.93;;;1.87;;
12385;SDS011;6257;57.634;18.310;2023-06-14T13:27:35;4.73;;;1.90;;
12385;SDS011;6257;57.634;18.310;2023-06-14T13:30:03;6.30;;;2.07;;
12385;SDS011;6257;57.634;18.310;2023-06-14T13:32:31;3.50;;;2.00;;
12385;SDS011;6257;57.634;18.310;2023-06-14T13:35:00;2.63;;;1.90;;
12385;SDS011;6257;57.634;18.310;2023-06-14T13:37:27;4.07;;;1.77;;
12385;SDS011;6257;57.634;18.310;2023-06-14T13:39:54;5.17;;;2.30;;
12385;SDS011;6257;57.634;18.310;2023-06-14T13:42:21;5.10;;;2.37;;
12385;SDS011;6257;57.634;18.310;2023-06-14T13:44:48;9.13;;;1.90;;
12385;SDS011;6257;57.634;18.310;2023-06-14T13:47:16;6.10;;;1.97;;
12385;SDS011;6257;57.634;18.310;2023-06-14T13:49:43;5.37;;;1.90;;
12385;SDS011;6257;57.634;18.310;2023-06-14T13:52:12;6.20;;;2.07;;
12385;SDS011;6257;57.634;18.310;2023-06-14T13:54:39;3.60;;;2.00;;
12385;SDS011;6257;57.634;18.310;2023-06-14T13:57:07;11.87;;;2.30;;
12385;SDS011;6257;57.634;18.310;2023-06-14T13:59:37;7.83;;;2.00;;
12385;SDS011;6257;57.634;18.310;2023-06-14T14:02:05;2.93;;;1.80;;
12385;SDS011;6257;57.634;18.310;2023-06-14T14:04:32;4.07;;;2.00;;
12385;SDS011;6257;57.634;18.310;2023-06-14T14:07:00;5.60;;;2.03;;
12385;SDS011;6257;57.634;18.310;2023-06-14T14:09:29;3.70;;;1.80;;
12385;SDS011;6257;57.634;18.310;2023-06-14T14:11:57;4.00;;;1.93;;
12385;SDS011;6257;57.634;18.310;2023-06-14T14:14:24;3.67;;;2.00;;
12385;SDS011;6257;57.634;18.310;2023-06-14T14:16:52;6.47;;;2.20;;
12385;SDS011;6257;57.634;18.310;2023-06-14T14:19:19;6.97;;;2.20;;
12385;SDS011;6257;57.634;18.310;2023-06-14T14:21:47;3.47;;;1.73;;
12385;SDS011;6257;57.634;18.310;2023-06-14T14:24:14;5.67;;;2.00;;
12385;SDS011;6257;57.634;18.310;2023-06-14T14:26:42;6.20;;;2.10;;
12385;SDS011;6257;57.634;18.310;2023-06-14T14:29:12;7.50;;;2.03;;
12385;SDS011;6257;57.634;18.310;2023-06-14T14:31:39;3.20;;;1.97;;
12385;SDS011;6257;57.634;18.310;2023-06-14T14:34:06;4.67;;;2.00;;
12385;SDS011;6257;57.634;18.310;2023-06-14T14:36:33;5.47;;;1.90;;
12385;SDS011;6257;57.634;18.310;2023-06-14T14:39:02;5.80;;;2.20;;
12385;SDS011;6257;57.634;18.310;2023-06-14T14:41:29;4.73;;;2.13;;
12385;SDS011;6257;57.634;18.310;2023-06-14T14:43:58;4.07;;;2.00;;
12385;SDS011;6257;57.634;18.310;2023-06-14T14:46:25;17.77;;;3.17;;
12385;SDS011;6257;57.634;18.310;2023-06-14T14:48:53;3.83;;;1.90;;
12385;SDS011;6257;57.634;18.310;2023-06-14T14:51:20;4.37;;;2.40;;
12385;SDS011;6257;57.634;18.310;2023-06-14T14:53:47;5.70;;;2.10;;
12385;SDS011;6257;57.634;18.310;2023-06-14T14:56:14;6.10;;;2.47;;
12385;SDS011;6257;57.634;18.310;2023-06-14T14:58:42;3.37;;;1.83;;
12385;SDS011;6257;57.634;18.310;2023-06-14T15:01:10;4.13;;;1.90;;